createdAt,value
2022-12-27T00:00:14.302Z,14.07
2022-12-27T00:02:46.144Z,14.07
2022-12-27T00:05:15.732Z,12.30
2022-12-27T00:07:44.168Z,12.15
2022-12-27T00:10:15.770Z,17.67
2022-12-27T00:12:43.700Z,12.02
2022-12-27T00:15:11.746Z,11.88
2022-12-27T00:17:42.238Z,11.90
2022-12-27T00:20:11.663Z,12.38
2022-12-27T00:22:42.028Z,11.18
2022-12-27T00:25:11.474Z,11.07
2022-12-27T00:27:40.188Z,11.50
2022-12-27T00:30:08.973Z,9.70
2022-12-27T00:32:37.095Z,10.52
2022-12-27T00:35:05.461Z,9.80
2022-12-27T00:37:34.257Z,11.15
2022-12-27T00:40:02.443Z,10.57
2022-12-27T00:42:30.833Z,10.68
2022-12-27T00:44:59.548Z,10.52
2022-12-27T00:47:30.518Z,10.52
2022-12-27T00:49:58.466Z,9.90
2022-12-27T00:52:27.222Z,10.27
2022-12-27T00:54:58.052Z,10.27
2022-12-27T00:57:27.225Z,10.23
2022-12-27T00:59:55.467Z,10.88
2022-12-27T01:02:26.229Z,10.80
2022-12-27T01:05:00.533Z,10.02
2022-12-27T01:07:28.826Z,9.38
2022-12-27T01:09:57.986Z,8.93
2022-12-27T01:12:26.360Z,9.95
2022-12-27T01:14:54.477Z,9.18
2022-12-27T01:17:26.460Z,8.63
2022-12-27T01:19:54.409Z,9.40
2022-12-27T01:22:23.457Z,8.38
2022-12-27T01:24:51.356Z,7.72
2022-12-27T01:27:20.559Z,7.97
2022-12-27T01:29:49.516Z,8.30
2022-12-27T01:32:17.686Z,8.45
2022-12-27T01:34:47.451Z,8.75
2022-12-27T01:37:16.167Z,9.77
2022-12-27T01:39:44.246Z,9.32
2022-12-27T01:42:35.642Z,9.27
2022-12-27T01:45:22.133Z,9.95
2022-12-27T01:48:21.931Z,9.85
2022-12-27T01:50:56.221Z,10.50
2022-12-27T01:53:42.059Z,12.32
2022-12-27T01:56:28.122Z,11.77
2022-12-27T01:59:07.219Z,12.07
2022-12-27T02:01:38.275Z,15.15
2022-12-27T02:04:09.480Z,15.68
2022-12-27T02:06:39.010Z,15.98
2022-12-27T02:09:18.918Z,17.20
2022-12-27T02:11:52.477Z,17.30
2022-12-27T02:14:29.967Z,18.83
2022-12-27T02:16:58.752Z,20.33
2022-12-27T02:20:01.942Z,22.13
2022-12-27T02:23:05.973Z,20.58
2022-12-27T02:25:50.915Z,21.48
2022-12-27T02:28:24.980Z,20.45
2022-12-27T02:30:55.868Z,21.15
2022-12-27T02:33:27.402Z,22.15
2022-12-27T02:36:13.285Z,22.50
2022-12-27T02:41:30.281Z,22.40
2022-12-27T02:44:18.012Z,20.38
2022-12-27T02:47:10.462Z,23.92
2022-12-27T02:50:01.701Z,20.40
2022-12-27T02:53:05.476Z,19.42
2022-12-27T02:56:09.587Z,20.75
2022-12-27T02:58:49.497Z,21.75
2022-12-27T03:01:42.775Z,20.67
2022-12-27T03:04:26.744Z,20.08
2022-12-27T03:07:01.358Z,22.38
2022-12-27T03:09:53.501Z,22.75
2022-12-27T03:12:45.239Z,20.20
2022-12-27T03:15:59.872Z,19.50
2022-12-27T03:18:31.388Z,19.17
2022-12-27T03:21:18.309Z,20.25
2022-12-27T03:24:05.229Z,19.52
2022-12-27T03:26:34.643Z,18.95
2022-12-27T03:29:21.187Z,20.95
2022-12-27T03:32:12.577Z,20.52
2022-12-27T03:34:44.178Z,21.80
2022-12-27T03:37:46.316Z,23.17
2022-12-27T03:40:23.693Z,20.20
2022-12-27T03:43:11.531Z,19.58
2022-12-27T03:46:16.353Z,22.38
2022-12-27T03:49:09.224Z,17.85
2022-12-27T03:54:44.053Z,20.33
2022-12-27T03:57:15.543Z,18.92
2022-12-27T03:59:44.060Z,20.92
2022-12-27T04:02:12.544Z,18.05
2022-12-27T04:04:40.608Z,16.27
2022-12-27T04:07:08.936Z,16.42
2022-12-27T04:09:56.244Z,15.50
2022-12-27T04:12:45.117Z,15.63
2022-12-27T04:15:36.203Z,14.32
2022-12-27T04:18:23.735Z,13.85
2022-12-27T04:21:10.909Z,13.35
2022-12-27T04:23:59.768Z,13.00
2022-12-27T04:26:50.016Z,12.18
2022-12-27T04:29:36.963Z,11.65
2022-12-27T04:32:23.930Z,11.10
2022-12-27T04:34:56.054Z,8.68
2022-12-27T04:37:24.265Z,8.45
2022-12-27T04:40:10.977Z,8.13
2022-12-27T04:42:57.286Z,8.30
2022-12-27T04:48:35.172Z,7.55
2022-12-27T04:51:24.290Z,6.50
2022-12-27T04:54:11.578Z,5.93
2022-12-27T04:56:39.871Z,5.50
2022-12-27T04:59:27.176Z,5.57
2022-12-27T05:02:04.875Z,5.03
2022-12-27T05:04:36.064Z,5.82
2022-12-27T05:07:25.742Z,5.00
2022-12-27T05:10:12.975Z,5.55
2022-12-27T05:13:03.043Z,6.07
2022-12-27T05:15:32.663Z,6.60
2022-12-27T05:18:01.998Z,6.70
2022-12-27T05:20:30.228Z,6.45
2022-12-27T05:23:18.370Z,6.07
2022-12-27T05:25:47.341Z,6.57
2022-12-27T05:28:16.629Z,5.30
2022-12-27T05:30:46.410Z,5.22
2022-12-27T05:33:14.507Z,5.43
2022-12-27T05:35:42.717Z,4.85
2022-12-27T05:38:10.923Z,5.32
2022-12-27T05:40:46.611Z,5.55
2022-12-27T05:43:17.998Z,5.07
2022-12-27T05:45:46.669Z,5.45
2022-12-27T05:48:14.914Z,5.45
2022-12-27T05:50:42.889Z,8.85
2022-12-27T05:53:13.741Z,9.40
2022-12-27T05:55:42.613Z,8.70
2022-12-27T05:58:17.058Z,7.82
2022-12-27T06:00:48.554Z,7.10
2022-12-27T06:03:17.073Z,5.95
2022-12-27T06:05:45.406Z,6.28
2022-12-27T06:08:13.405Z,6.25
2022-12-27T06:10:42.431Z,6.30
2022-12-27T06:13:11.758Z,6.40
2022-12-27T06:15:49.607Z,5.40
2022-12-27T06:18:18.441Z,5.00
2022-12-27T06:20:52.507Z,5.10
2022-12-27T06:23:29.762Z,4.88
2022-12-27T06:26:07.844Z,4.82
2022-12-27T06:28:37.715Z,5.10
2022-12-27T06:31:14.596Z,5.68
2022-12-27T06:33:43.687Z,4.93
2022-12-27T06:36:13.973Z,6.30
2022-12-27T06:38:42.852Z,7.07
2022-12-27T06:41:13.489Z,8.32
2022-12-27T06:43:42.038Z,8.00
2022-12-27T06:46:18.855Z,6.25
2022-12-27T06:48:47.527Z,6.65
2022-12-27T06:51:16.577Z,6.55
2022-12-27T06:53:47.775Z,7.22
2022-12-27T06:56:18.344Z,6.90
2022-12-27T06:58:46.911Z,6.60
2022-12-27T07:01:23.477Z,5.88
2022-12-27T07:03:53.805Z,5.90
2022-12-27T07:06:24.630Z,5.03
2022-12-27T07:08:53.734Z,4.65
2022-12-27T07:11:24.634Z,4.93
2022-12-27T07:13:56.651Z,4.68
2022-12-27T07:16:27.342Z,5.57
2022-12-27T07:18:57.558Z,6.15
2022-12-27T07:21:27.214Z,7.05
2022-12-27T07:23:59.860Z,11.05
2022-12-27T07:26:47.164Z,7.43
2022-12-27T07:29:18.729Z,8.05
2022-12-27T07:31:54.939Z,6.90
2022-12-27T07:34:32.207Z,6.03
2022-12-27T07:37:08.913Z,6.55
2022-12-27T07:39:42.469Z,6.63
2022-12-27T07:42:36.292Z,5.30
2022-12-27T07:45:20.307Z,6.68
2022-12-27T07:47:49.874Z,6.90
2022-12-27T07:54:00.228Z,9.10
2022-12-27T07:59:44.698Z,10.55
2022-12-27T08:02:41.230Z,9.85
2022-12-27T08:05:32.405Z,9.30
2022-12-27T08:08:06.801Z,10.00
2022-12-27T08:10:41.265Z,10.52
2022-12-27T08:13:12.602Z,11.27
2022-12-27T08:15:55.064Z,12.80
2022-12-27T08:18:32.798Z,10.77
2022-12-27T08:21:06.941Z,10.25
2022-12-27T08:23:45.386Z,10.65
2022-12-27T08:26:47.943Z,9.43
2022-12-27T08:29:22.056Z,10.18
2022-12-27T08:31:56.151Z,9.50
2022-12-27T08:34:38.081Z,10.05
2022-12-27T08:37:10.667Z,8.93
2022-12-27T08:39:39.033Z,9.70
2022-12-27T08:42:08.084Z,7.82
2022-12-27T08:44:40.873Z,9.18
2022-12-27T08:47:29.128Z,10.05
2022-12-27T08:50:03.315Z,9.30
2022-12-27T08:52:34.827Z,9.80
2022-12-27T08:55:03.760Z,9.88
2022-12-27T08:57:32.606Z,9.07
2022-12-27T09:00:00.779Z,9.38
2022-12-27T09:02:29.267Z,10.32
2022-12-27T09:05:00.405Z,9.30
2022-12-27T09:07:30.488Z,10.50
2022-12-27T09:10:06.173Z,9.60
2022-12-27T09:12:51.695Z,10.13
2022-12-27T09:15:42.854Z,8.27
2022-12-27T09:18:17.970Z,7.90
2022-12-27T09:20:52.273Z,6.73
2022-12-27T09:23:29.885Z,7.35
2022-12-27T09:26:24.689Z,7.20
2022-12-27T09:29:00.392Z,6.65
2022-12-27T09:31:46.850Z,7.00
2022-12-27T09:34:15.600Z,6.05
2022-12-27T09:36:51.039Z,5.38
2022-12-27T09:39:20.170Z,6.47
2022-12-27T09:42:49.841Z,7.25
2022-12-27T09:45:20.998Z,9.27
2022-12-27T09:48:34.389Z,9.20
2022-12-27T09:51:20.478Z,8.00
2022-12-27T09:54:07.607Z,6.97
2022-12-27T09:57:09.675Z,6.60
2022-12-27T09:59:36.092Z,7.38
2022-12-27T10:02:09.202Z,7.75
2022-12-27T10:05:09.953Z,8.10
2022-12-27T10:07:34.249Z,6.70
2022-12-27T10:10:18.290Z,5.57
2022-12-27T14:12:57.661Z,17.08
2022-12-27T14:15:57.872Z,15.43
2022-12-27T14:18:56.208Z,15.02
2022-12-27T14:21:36.466Z,16.80
2022-12-27T14:24:24.537Z,16.52
2022-12-27T14:27:11.196Z,17.15
2022-12-27T14:30:06.966Z,19.27
2022-12-27T14:32:59.326Z,16.83
2022-12-27T14:36:09.080Z,15.90
2022-12-27T14:38:43.359Z,16.00
2022-12-27T14:41:36.638Z,17.40
2022-12-27T14:44:34.868Z,17.33
2022-12-27T14:47:20.293Z,17.58
2022-12-27T14:50:22.350Z,16.70
2022-12-27T14:53:02.436Z,17.73
2022-12-27T14:55:46.219Z,18.10
2022-12-27T14:58:55.542Z,19.67
2022-12-27T15:01:50.626Z,19.35
2022-12-27T15:04:34.632Z,20.40
2022-12-27T15:07:24.425Z,21.55
2022-12-27T15:10:33.909Z,36.15
2022-12-27T15:13:25.927Z,19.23
2022-12-27T15:15:54.266Z,19.50
2022-12-27T15:19:06.317Z,19.70
2022-12-27T15:21:58.944Z,22.60
2022-12-27T15:24:51.082Z,19.52
2022-12-27T15:27:28.234Z,20.10
2022-12-27T15:30:29.977Z,21.48
2022-12-27T15:39:00.908Z,22.20
2022-12-27T15:41:37.327Z,21.80
2022-12-27T15:44:25.917Z,21.58
2022-12-27T15:47:30.071Z,20.75
2022-12-27T15:50:09.621Z,20.67
2022-12-27T15:53:08.956Z,21.13
2022-12-27T15:55:59.579Z,21.52
2022-12-27T15:58:27.865Z,23.17
2022-12-27T16:01:23.634Z,21.15
2022-12-27T16:03:53.840Z,21.17
2022-12-27T16:06:34.026Z,21.50
2022-12-27T16:09:23.187Z,22.63
2022-12-27T16:12:37.381Z,24.48
2022-12-27T16:15:43.568Z,21.90
2022-12-27T16:18:20.433Z,23.50
2022-12-27T16:21:16.363Z,24.77
2022-12-27T16:23:45.906Z,25.75
2022-12-27T16:26:17.318Z,25.38
2022-12-27T16:29:13.752Z,25.88
2022-12-27T16:31:48.072Z,25.15
2022-12-27T16:34:21.280Z,26.27
2022-12-27T16:36:49.508Z,24.45
2022-12-27T16:39:44.950Z,23.90
2022-12-27T16:42:15.685Z,22.90
2022-12-27T16:45:05.724Z,22.55
2022-12-27T16:47:37.131Z,23.65
2022-12-27T16:50:41.832Z,24.00
2022-12-27T16:53:22.375Z,22.75
2022-12-27T16:56:37.060Z,22.52
2022-12-27T16:59:55.050Z,24.10
2022-12-27T17:02:49.053Z,23.30
2022-12-27T17:05:17.029Z,24.80
2022-12-27T17:08:05.092Z,23.85
2022-12-27T17:10:42.374Z,24.77
2022-12-27T17:13:45.397Z,23.85
2022-12-27T17:16:22.990Z,24.77
2022-12-27T17:19:08.408Z,25.45
2022-12-27T17:21:38.693Z,24.70
2022-12-27T17:24:19.020Z,24.55
2022-12-27T17:27:18.764Z,22.45
2022-12-27T17:30:07.069Z,22.70
2022-12-27T17:33:19.415Z,23.08
2022-12-27T17:36:08.153Z,22.67
2022-12-27T17:39:00.456Z,22.77
2022-12-27T17:42:23.081Z,22.00
2022-12-27T17:45:06.117Z,20.33
2022-12-27T17:48:11.844Z,21.23
2022-12-27T17:54:56.059Z,21.15
2022-12-27T17:57:43.324Z,22.27
2022-12-27T18:00:29.786Z,22.45
2022-12-27T18:02:59.390Z,24.98
2022-12-27T18:05:31.478Z,25.30
2022-12-27T18:08:29.961Z,25.65
2022-12-27T18:10:58.249Z,29.92
2022-12-27T18:13:27.901Z,36.22
2022-12-27T18:15:58.383Z,38.75
2022-12-27T18:18:31.142Z,33.50
2022-12-27T18:21:08.447Z,30.23
2022-12-27T18:23:46.908Z,25.67
2022-12-27T18:26:15.332Z,25.70
2022-12-27T18:28:50.421Z,23.30
2022-12-27T18:31:57.377Z,25.55
2022-12-27T18:37:54.844Z,28.08
2022-12-27T18:40:31.306Z,26.00
2022-12-27T18:43:38.324Z,27.10
2022-12-27T18:46:50.885Z,25.00
2022-12-27T18:49:40.774Z,23.42
2022-12-27T18:52:26.178Z,23.83
2022-12-27T18:54:54.922Z,23.27
2022-12-27T18:57:32.337Z,24.55
2022-12-27T19:00:24.535Z,24.10
2022-12-27T19:03:20.181Z,22.20
2022-12-27T19:06:08.624Z,23.38
2022-12-27T19:08:40.455Z,21.60
2022-12-27T19:11:09.844Z,21.65
2022-12-27T19:13:52.730Z,20.23
2022-12-27T19:16:29.439Z,20.30
2022-12-27T19:19:28.917Z,21.98
2022-12-27T19:21:59.104Z,22.58
2022-12-27T19:24:33.214Z,21.27
2022-12-27T19:27:24.300Z,22.80
2022-12-27T19:29:59.013Z,21.58
2022-12-27T19:32:37.709Z,21.00
2022-12-27T19:35:06.166Z,22.48
2022-12-27T19:37:35.952Z,22.85
2022-12-27T19:40:10.933Z,21.50
2022-12-27T19:42:39.727Z,20.33
2022-12-27T19:48:06.278Z,21.33
2022-12-27T19:50:48.451Z,25.58
2022-12-27T19:53:24.493Z,23.40
2022-12-27T19:55:56.167Z,22.27
2022-12-27T19:58:33.444Z,23.52
2022-12-27T20:01:18.760Z,23.17
2022-12-27T20:03:52.429Z,24.05
2022-12-27T20:06:33.239Z,22.48
2022-12-27T20:09:17.082Z,23.15
2022-12-27T20:11:49.351Z,23.65
2022-12-27T20:14:31.781Z,23.40
2022-12-27T20:17:07.905Z,22.08
2022-12-27T20:19:44.372Z,23.58
2022-12-27T20:22:19.830Z,24.67
2022-12-27T20:24:52.545Z,24.45
2022-12-27T20:27:38.110Z,25.33
2022-12-27T20:30:07.422Z,25.70
2022-12-27T20:32:40.472Z,25.35
2022-12-27T20:35:19.226Z,25.65
2022-12-27T20:37:47.424Z,22.90
2022-12-27T20:40:27.837Z,24.52
2022-12-27T20:42:57.473Z,24.13
2022-12-27T20:45:30.038Z,24.95
2022-12-27T20:47:59.206Z,26.83
2022-12-27T20:50:35.548Z,25.35
2022-12-27T20:53:12.410Z,20.25
2022-12-27T20:55:42.873Z,22.45
2022-12-27T20:58:16.284Z,23.00
2022-12-27T21:00:45.926Z,23.73
2022-12-27T21:03:15.578Z,23.15
2022-12-27T21:06:19.481Z,21.92
2022-12-27T21:08:56.298Z,21.95
2022-12-27T21:11:32.576Z,22.45
2022-12-27T21:14:09.841Z,21.45
2022-12-27T21:16:41.176Z,21.90
2022-12-27T21:19:19.367Z,20.05
2022-12-27T21:21:47.214Z,20.00
2022-12-27T21:24:16.414Z,19.95
2022-12-27T21:26:54.582Z,19.83
2022-12-27T21:29:32.778Z,19.73
2022-12-27T21:32:14.064Z,17.83
2022-12-27T21:34:43.427Z,19.67
2022-12-27T21:37:13.665Z,18.45
2022-12-27T21:39:41.959Z,18.13
2022-12-27T21:42:17.100Z,19.25
2022-12-27T21:44:51.506Z,17.60
2022-12-27T21:47:22.451Z,15.70
2022-12-27T21:49:52.523Z,17.80
2022-12-27T21:52:26.289Z,15.48
2022-12-27T21:55:52.469Z,16.00
2022-12-27T21:59:30.718Z,16.48
2022-12-27T22:02:00.426Z,19.95
2022-12-27T22:04:54.306Z,17.33
2022-12-27T22:08:01.599Z,18.63
2022-12-27T22:13:33.731Z,16.40
2022-12-27T22:16:17.559Z,15.40
2022-12-27T22:18:50.486Z,17.48
2022-12-27T22:22:09.885Z,14.50
2022-12-27T22:25:10.918Z,16.20
2022-12-27T22:30:55.769Z,14.35
2022-12-27T22:33:30.391Z,14.45
2022-12-27T22:36:12.163Z,13.98
2022-12-27T22:38:41.338Z,12.93
2022-12-27T22:41:35.376Z,11.50
2022-12-27T22:44:21.783Z,12.02
2022-12-27T22:49:43.748Z,10.90
2022-12-27T22:52:19.016Z,8.93
2022-12-27T22:55:04.645Z,8.43
2022-12-27T22:57:35.439Z,8.23
2022-12-27T23:00:08.074Z,8.07
2022-12-27T23:02:42.008Z,8.30
2022-12-27T23:05:13.190Z,7.82
2022-12-27T23:08:04.314Z,6.57
2022-12-27T23:10:29.120Z,6.32
2022-12-27T23:12:57.250Z,5.60
2022-12-27T23:15:25.580Z,2.75
2022-12-27T23:17:55.746Z,1.88
2022-12-27T23:20:23.955Z,1.67
2022-12-27T23:22:51.880Z,1.50
2022-12-27T23:25:20.076Z,1.30
2022-12-27T23:27:48.008Z,1.02
2022-12-27T23:30:17.176Z,1.15
2022-12-27T23:32:45.241Z,1.00
2022-12-27T23:35:13.210Z,1.10
2022-12-27T23:37:41.658Z,1.33
2022-12-27T23:40:10.213Z,1.20
2022-12-27T23:42:38.510Z,1.27
2022-12-27T23:45:06.864Z,1.05
2022-12-27T23:47:34.992Z,1.27
2022-12-27T23:50:02.917Z,1.13
2022-12-27T23:52:31.249Z,0.90
2022-12-27T23:54:59.478Z,0.90
2022-12-27T23:57:29.334Z,1.45
2022-12-27T23:59:57.683Z,1.17
